createdAt,value
2017-11-28T00:00:21.582Z,1010.18
2017-11-28T00:01:23.456Z,1010.24
2017-11-28T00:02:25.329Z,1010.25
2017-11-28T00:03:27.155Z,1010.31
2017-11-28T00:04:28.971Z,1010.24
2017-11-28T00:05:30.849Z,1010.17
2017-11-28T00:06:32.727Z,1010.18
2017-11-28T00:07:34.600Z,1010.24
2017-11-28T00:08:48.749Z,1010.14
2017-11-28T00:09:50.624Z,1010.15
2017-11-28T00:10:52.501Z,1010.06
2017-11-28T00:11:54.376Z,1010.03
2017-11-28T00:12:56.203Z,1010.07
2017-11-28T00:13:58.013Z,1010.03
2017-11-28T00:14:59.891Z,1010.07
2017-11-28T00:16:01.764Z,1010.09
2017-11-28T00:17:03.641Z,1010.02
2017-11-28T00:18:17.788Z,1010.00
2017-11-28T00:19:19.665Z,1010.03
2017-11-28T00:20:21.544Z,1010.03
2017-11-28T00:21:23.421Z,1009.98
2017-11-28T00:22:25.235Z,1010.01
2017-11-28T00:23:27.048Z,1009.96
2017-11-28T00:24:28.928Z,1010.01
2017-11-28T00:25:30.807Z,1010.01
2017-11-28T00:26:32.684Z,1009.93
2017-11-28T00:27:46.881Z,1009.98
2017-11-28T00:28:48.761Z,1009.95
2017-11-28T00:29:50.642Z,1009.96
2017-11-28T00:30:52.520Z,1009.99
2017-11-28T00:31:54.333Z,1010.02
2017-11-28T00:32:56.161Z,1010.00
2017-11-28T00:33:58.049Z,1009.95
2017-11-28T00:34:59.928Z,1009.97
2017-11-28T00:36:01.804Z,1010.01
2017-11-28T00:37:16.010Z,1010.06
2017-11-28T00:38:17.883Z,1010.01
2017-11-28T00:39:19.760Z,1009.99
2017-11-28T00:40:21.636Z,1010.01
2017-11-28T00:41:23.452Z,1009.99
2017-11-28T00:42:25.271Z,1010.02
2017-11-28T00:43:27.146Z,1009.95
2017-11-28T00:44:29.020Z,1009.98
2017-11-28T00:45:30.908Z,1009.95
2017-11-28T00:46:45.058Z,1009.88
2017-11-28T00:47:46.936Z,1009.90
2017-11-28T00:48:48.814Z,1009.92
2017-11-28T00:49:50.692Z,1009.87
2017-11-28T00:50:52.507Z,1009.81
2017-11-28T00:51:54.325Z,1009.88
2017-11-28T00:52:56.210Z,1009.77
2017-11-28T00:53:58.076Z,1009.83
2017-11-28T00:54:59.952Z,1009.82
2017-11-28T00:56:14.105Z,1009.75
2017-11-28T00:57:15.982Z,1009.76
2017-11-28T00:58:17.863Z,1009.79
2017-11-28T00:59:19.726Z,1009.83
2017-11-28T01:00:21.540Z,1009.72
2017-11-28T01:01:23.358Z,1009.75
2017-11-28T01:02:25.233Z,1009.75
2017-11-28T01:03:27.108Z,1009.68
2017-11-28T01:04:28.982Z,1009.74
2017-11-28T01:05:43.133Z,1009.76
2017-11-28T01:06:45.006Z,1009.76
2017-11-28T01:07:46.892Z,1009.84
2017-11-28T01:08:48.762Z,1009.80
2017-11-28T01:09:50.577Z,1009.84
2017-11-28T01:10:52.389Z,1009.81
2017-11-28T01:11:54.262Z,1009.80
2017-11-28T01:12:56.138Z,1009.89
2017-11-28T01:13:58.010Z,1009.85
2017-11-28T01:15:12.159Z,1009.87
2017-11-28T01:16:14.033Z,1009.87
2017-11-28T01:17:15.906Z,1009.90
2017-11-28T01:18:17.779Z,1009.87
2017-11-28T01:19:19.595Z,1009.86
2017-11-28T01:20:21.412Z,1009.83
2017-11-28T01:21:23.285Z,1009.78
2017-11-28T01:22:25.160Z,1009.80
2017-11-28T01:23:27.032Z,1009.82
2017-11-28T01:24:41.180Z,1009.86
2017-11-28T01:25:43.055Z,1009.80
2017-11-28T01:26:44.930Z,1009.74
2017-11-28T01:27:46.801Z,1009.83
2017-11-28T01:28:48.615Z,1009.81
2017-11-28T01:29:50.431Z,1009.74
2017-11-28T01:30:52.306Z,1009.76
2017-11-28T01:31:54.185Z,1009.63
2017-11-28T01:32:56.054Z,1009.72
2017-11-28T01:34:10.204Z,1009.76
2017-11-28T01:35:12.077Z,1009.75
2017-11-28T01:36:13.953Z,1009.68
2017-11-28T01:37:15.823Z,1009.73
2017-11-28T01:38:17.638Z,1009.74
2017-11-28T01:39:19.454Z,1009.74
2017-11-28T01:40:21.328Z,1009.71
2017-11-28T01:41:23.202Z,1009.67
2017-11-28T01:42:25.079Z,1009.64
2017-11-28T01:43:39.226Z,1009.57
2017-11-28T01:44:41.102Z,1009.62
2017-11-28T01:45:42.981Z,1009.56
2017-11-28T01:46:44.849Z,1009.54
2017-11-28T01:47:46.665Z,1009.61
2017-11-28T01:48:48.478Z,1009.57
2017-11-28T01:49:50.352Z,1009.57
2017-11-28T01:50:52.234Z,1009.65
2017-11-28T01:51:54.101Z,1009.60
2017-11-28T01:53:08.258Z,1009.60
2017-11-28T01:54:10.134Z,1009.52
2017-11-28T01:55:12.010Z,1009.54
2017-11-28T01:56:13.878Z,1009.53
2017-11-28T01:57:15.694Z,1009.56
2017-11-28T01:58:17.510Z,1009.61
2017-11-28T01:59:19.385Z,1009.54
2017-11-28T02:00:21.263Z,1009.55
2017-11-28T02:01:23.136Z,1009.55
2017-11-28T02:02:37.288Z,1009.52
2017-11-28T02:03:39.164Z,1009.48
2017-11-28T02:04:41.055Z,1009.55
2017-11-28T02:05:42.921Z,1009.53
2017-11-28T02:06:44.737Z,1009.53
2017-11-28T02:07:46.566Z,1009.50
2017-11-28T02:08:48.441Z,1009.50
2017-11-28T02:09:50.317Z,1009.54
2017-11-28T02:10:52.192Z,1009.57
2017-11-28T02:12:06.341Z,1009.47
2017-11-28T02:13:08.213Z,1009.46
2017-11-28T02:14:10.088Z,1009.51
2017-11-28T02:15:11.958Z,1009.44
2017-11-28T02:16:13.789Z,1009.51
2017-11-28T02:17:15.589Z,1009.47
2017-11-28T02:18:17.461Z,1009.49
2017-11-28T02:19:19.338Z,1009.48
2017-11-28T02:20:21.210Z,1009.49
2017-11-28T02:21:35.357Z,1009.48
2017-11-28T02:22:37.232Z,1009.50
2017-11-28T02:23:39.111Z,1009.54
2017-11-28T02:24:40.983Z,1009.51
2017-11-28T02:25:42.798Z,1009.54
2017-11-28T02:26:44.612Z,1009.45
2017-11-28T02:27:46.485Z,1009.48
2017-11-28T02:28:48.366Z,1009.47
2017-11-28T02:29:50.242Z,1009.43
2017-11-28T02:31:04.392Z,1009.38
2017-11-28T02:32:06.268Z,1009.34
2017-11-28T02:33:08.148Z,1009.42
2017-11-28T02:34:10.025Z,1009.41
2017-11-28T02:35:11.840Z,1009.36
2017-11-28T02:36:13.656Z,1009.41
2017-11-28T02:37:15.528Z,1009.36
2017-11-28T02:38:17.405Z,1009.37
2017-11-28T02:39:19.277Z,1009.40
2017-11-28T02:40:33.428Z,1009.30
2017-11-28T02:41:35.307Z,1009.32
2017-11-28T02:42:37.187Z,1009.38
2017-11-28T02:43:39.064Z,1009.41
2017-11-28T02:44:40.880Z,1009.40
2017-11-28T02:45:42.692Z,1009.36
2017-11-28T02:46:44.529Z,1009.39
2017-11-28T02:47:46.344Z,1009.31
2017-11-28T02:48:48.181Z,1009.31
2017-11-28T02:50:02.334Z,1009.32
2017-11-28T02:51:04.213Z,1009.34
2017-11-28T02:52:06.094Z,1009.28
2017-11-28T02:53:07.967Z,1009.25
2017-11-28T02:54:09.783Z,1009.22
2017-11-28T02:55:11.598Z,1009.24
2017-11-28T02:56:13.475Z,1009.22
2017-11-28T02:57:15.352Z,1009.17
2017-11-28T02:58:17.224Z,1009.16
2017-11-28T02:59:31.382Z,1009.14
2017-11-28T03:00:33.248Z,1009.22
2017-11-28T03:01:35.123Z,1009.16
2017-11-28T03:02:36.993Z,1009.16
2017-11-28T03:03:38.809Z,1009.17
2017-11-28T03:04:40.624Z,1009.15
2017-11-28T03:05:42.495Z,1009.16
2017-11-28T03:06:44.394Z,1009.16
2017-11-28T03:07:46.249Z,1009.12
2017-11-28T03:09:00.395Z,1009.08
2017-11-28T03:10:02.270Z,1009.07
2017-11-28T03:11:04.149Z,1009.09
2017-11-28T03:12:06.024Z,1009.05
2017-11-28T03:13:07.840Z,1009.03
2017-11-28T03:14:09.653Z,1008.92
2017-11-28T03:15:11.528Z,1009.03
2017-11-28T03:16:13.402Z,1008.88
2017-11-28T03:17:15.273Z,1008.94
2017-11-28T03:18:29.419Z,1008.90
2017-11-28T03:19:31.294Z,1008.96
2017-11-28T03:20:33.171Z,1008.98
2017-11-28T03:21:35.040Z,1008.95
2017-11-28T03:22:36.855Z,1008.92
2017-11-28T03:23:38.671Z,1008.95
2017-11-28T03:24:40.541Z,1008.88
2017-11-28T03:25:42.421Z,1008.91
2017-11-28T03:26:44.292Z,1008.83
2017-11-28T03:27:58.491Z,1008.91
2017-11-28T03:29:00.365Z,1008.88
2017-11-28T03:30:02.243Z,1008.86
2017-11-28T03:31:04.116Z,1008.78
2017-11-28T03:32:05.930Z,1008.78
2017-11-28T03:33:07.748Z,1008.77
2017-11-28T03:34:09.632Z,1008.75
2017-11-28T03:35:11.492Z,1008.75
2017-11-28T03:36:13.364Z,1008.78
2017-11-28T03:37:27.511Z,1008.75
2017-11-28T03:38:29.413Z,1008.78
2017-11-28T03:39:31.290Z,1008.72
2017-11-28T03:40:33.167Z,1008.76
2017-11-28T03:41:34.981Z,1008.70
2017-11-28T03:42:36.806Z,1008.70
2017-11-28T03:43:38.670Z,1008.67
2017-11-28T03:44:40.546Z,1008.76
2017-11-28T03:45:42.422Z,1008.81
2017-11-28T03:46:56.616Z,1008.77
2017-11-28T03:47:58.491Z,1008.77
2017-11-28T03:49:00.366Z,1008.76
2017-11-28T03:50:02.239Z,1008.83
2017-11-28T03:51:04.053Z,1008.78
2017-11-28T03:52:05.867Z,1008.69
2017-11-28T03:53:07.741Z,1008.77
2017-11-28T03:54:09.618Z,1008.72
2017-11-28T03:55:11.489Z,1008.69
2017-11-28T03:56:25.665Z,1008.69
2017-11-28T03:57:27.479Z,1008.70
2017-11-28T03:58:29.315Z,1008.75
2017-11-28T03:59:31.188Z,1008.80
2017-11-28T04:00:33.065Z,1008.74
2017-11-28T04:01:34.918Z,1008.81
2017-11-28T04:02:36.729Z,1008.71
2017-11-28T04:03:38.544Z,1008.75
2017-11-28T04:04:40.418Z,1008.70
2017-11-28T04:05:54.628Z,1008.74
2017-11-28T04:06:56.500Z,1008.65
2017-11-28T04:07:58.378Z,1008.69
2017-11-28T04:09:00.251Z,1008.71
2017-11-28T04:10:02.067Z,1008.72
2017-11-28T04:11:03.880Z,1008.64
2017-11-28T04:12:05.753Z,1008.60
2017-11-28T04:13:07.631Z,1008.60
2017-11-28T04:14:09.503Z,1008.61
2017-11-28T04:15:23.701Z,1008.55
2017-11-28T04:16:25.573Z,1008.57
2017-11-28T04:17:27.467Z,1008.62
2017-11-28T04:18:29.320Z,1008.58
2017-11-28T04:19:31.136Z,1008.55
2017-11-28T04:20:32.951Z,1008.56
2017-11-28T04:21:34.826Z,1008.55
2017-11-28T04:22:36.698Z,1008.53
2017-11-28T04:23:38.569Z,1008.51
2017-11-28T04:24:52.722Z,1008.52
2017-11-28T04:25:54.592Z,1008.49
2017-11-28T04:26:56.467Z,1008.47
2017-11-28T04:27:58.343Z,1008.48
2017-11-28T04:29:00.158Z,1008.48
2017-11-28T04:30:01.976Z,1008.43
2017-11-28T04:31:03.843Z,1008.43
2017-11-28T04:32:05.722Z,1008.41
2017-11-28T04:33:07.593Z,1008.45
2017-11-28T04:34:21.797Z,1008.49
2017-11-28T04:35:23.664Z,1008.52
2017-11-28T04:36:25.547Z,1008.50
2017-11-28T04:37:27.413Z,1008.52
2017-11-28T04:38:29.227Z,1008.52
2017-11-28T04:39:31.041Z,1008.47
2017-11-28T04:40:32.913Z,1008.43
2017-11-28T04:41:34.790Z,1008.38
2017-11-28T04:42:36.662Z,1008.40
2017-11-28T04:43:50.808Z,1008.49
2017-11-28T04:44:52.680Z,1008.45
2017-11-28T04:45:54.557Z,1008.48
2017-11-28T04:46:56.429Z,1008.45
2017-11-28T04:47:58.248Z,1008.48
2017-11-28T04:49:00.062Z,1008.49
2017-11-28T04:50:01.934Z,1008.46
2017-11-28T04:51:03.808Z,1008.48
2017-11-28T04:52:05.692Z,1008.46
2017-11-28T04:53:19.829Z,1008.51
2017-11-28T04:54:21.703Z,1008.53
2017-11-28T04:55:23.579Z,1008.55
2017-11-28T04:56:25.452Z,1008.65
2017-11-28T04:57:27.269Z,1008.61
2017-11-28T04:58:29.087Z,1008.56
2017-11-28T04:59:30.961Z,1008.58
2017-11-28T05:00:32.836Z,1008.55
2017-11-28T05:01:34.712Z,1008.61
2017-11-28T05:02:48.862Z,1008.51
2017-11-28T05:03:50.736Z,1008.57
2017-11-28T05:04:52.619Z,1008.61
2017-11-28T05:05:54.487Z,1008.53
2017-11-28T05:06:56.303Z,1008.54
2017-11-28T05:07:58.117Z,1008.54
2017-11-28T05:08:59.990Z,1008.54
2017-11-28T05:10:01.871Z,1008.53
2017-11-28T05:11:03.743Z,1008.54
2017-11-28T05:12:17.888Z,1008.54
2017-11-28T05:13:19.760Z,1008.55
2017-11-28T05:14:21.635Z,1008.48
2017-11-28T05:15:23.506Z,1008.50
2017-11-28T05:16:25.319Z,1008.58
2017-11-28T05:17:27.135Z,1008.53
2017-11-28T05:18:29.003Z,1008.54
2017-11-28T05:19:30.874Z,1008.56
2017-11-28T05:20:32.751Z,1008.58
2017-11-28T05:21:46.895Z,1008.56
2017-11-28T05:22:48.768Z,1008.52
2017-11-28T05:23:50.643Z,1008.55
2017-11-28T05:24:52.512Z,1008.55
2017-11-28T05:25:54.326Z,1008.53
2017-11-28T05:26:56.138Z,1008.51
2017-11-28T05:27:58.008Z,1008.52
2017-11-28T05:28:59.881Z,1008.47
2017-11-28T05:30:01.752Z,1008.48
2017-11-28T05:31:15.947Z,1008.50
2017-11-28T05:32:17.825Z,1008.50
2017-11-28T05:33:19.692Z,1008.50
2017-11-28T05:34:21.561Z,1008.45
2017-11-28T05:35:23.376Z,1008.44
2017-11-28T05:36:25.189Z,1008.47
2017-11-28T05:37:27.060Z,1008.42
2017-11-28T05:38:28.939Z,1008.46
2017-11-28T05:39:30.804Z,1008.46
2017-11-28T05:40:45.003Z,1008.46
2017-11-28T05:41:46.874Z,1008.44
2017-11-28T05:42:48.753Z,1008.53
2017-11-28T05:43:50.619Z,1008.46
2017-11-28T05:44:52.431Z,1008.45
2017-11-28T05:45:54.246Z,1008.53
2017-11-28T05:46:56.116Z,1008.50
2017-11-28T05:47:57.997Z,1008.49
2017-11-28T05:48:59.866Z,1008.46
2017-11-28T05:50:14.058Z,1008.43
2017-11-28T05:51:15.931Z,1008.44
2017-11-28T05:52:17.819Z,1008.38
2017-11-28T05:53:19.719Z,1008.36
2017-11-28T05:54:21.532Z,1008.32
2017-11-28T05:55:23.346Z,1008.31
2017-11-28T05:56:25.215Z,1008.31
2017-11-28T05:57:27.090Z,1008.32
2017-11-28T05:58:28.967Z,1008.32
2017-11-28T05:59:43.109Z,1008.27
2017-11-28T06:00:44.979Z,1008.25
2017-11-28T06:01:46.853Z,1008.27
2017-11-28T06:02:48.724Z,1008.28
2017-11-28T06:03:50.542Z,1008.30
2017-11-28T06:04:52.355Z,1008.23
2017-11-28T06:05:54.225Z,1008.25
2017-11-28T06:06:56.097Z,1008.23
2017-11-28T06:07:57.970Z,1008.15
2017-11-28T06:09:12.115Z,1008.14
2017-11-28T06:10:13.993Z,1008.15
2017-11-28T06:11:15.869Z,1008.12
2017-11-28T06:12:17.734Z,1008.08
2017-11-28T06:13:19.547Z,1008.06
2017-11-28T06:14:21.359Z,1008.09
2017-11-28T06:15:23.235Z,1007.99
2017-11-28T06:16:25.115Z,1008.11
2017-11-28T06:17:26.982Z,1008.10
2017-11-28T06:18:41.128Z,1008.07
2017-11-28T06:19:42.999Z,1008.16
2017-11-28T06:20:44.871Z,1008.11
2017-11-28T06:21:46.743Z,1008.12
2017-11-28T06:22:48.561Z,1008.06
2017-11-28T06:23:50.376Z,1008.09
2017-11-28T06:24:52.246Z,1008.07
2017-11-28T06:25:54.119Z,1008.07
2017-11-28T06:26:55.991Z,1008.06
2017-11-28T06:28:10.144Z,1008.09
2017-11-28T06:29:12.016Z,1008.13
2017-11-28T06:30:13.892Z,1008.12
2017-11-28T06:31:15.766Z,1008.06
2017-11-28T06:32:17.585Z,1008.09
2017-11-28T06:33:19.391Z,1008.03
2017-11-28T06:34:21.264Z,1008.01
2017-11-28T06:35:23.135Z,1008.00
2017-11-28T06:36:25.006Z,1008.05
2017-11-28T06:37:39.204Z,1008.03
2017-11-28T06:38:41.077Z,1008.02
2017-11-28T06:39:42.953Z,1008.01
2017-11-28T06:40:44.825Z,1008.02
2017-11-28T06:41:46.640Z,1008.02
2017-11-28T06:42:48.452Z,1008.02
2017-11-28T06:43:50.325Z,1008.04
2017-11-28T06:44:52.198Z,1007.99
2017-11-28T06:45:54.068Z,1008.03
2017-11-28T06:47:08.217Z,1008.02
2017-11-28T06:48:10.093Z,1008.00
2017-11-28T06:49:11.971Z,1007.97
2017-11-28T06:50:13.843Z,1007.93
2017-11-28T06:51:15.659Z,1007.99
2017-11-28T06:52:17.471Z,1007.92
2017-11-28T06:53:19.344Z,1007.95
2017-11-28T06:54:21.218Z,1007.96
2017-11-28T06:55:23.088Z,1007.97
2017-11-28T06:56:37.237Z,1007.98
2017-11-28T06:57:39.109Z,1007.95
2017-11-28T06:58:40.985Z,1007.99
2017-11-28T06:59:42.858Z,1007.95
2017-11-28T07:00:44.676Z,1007.97
2017-11-28T07:01:46.490Z,1007.91
2017-11-28T07:02:48.364Z,1007.88
2017-11-28T07:03:50.240Z,1007.92
2017-11-28T07:04:52.115Z,1007.91
2017-11-28T07:06:06.262Z,1007.88
2017-11-28T07:07:08.138Z,1007.89
2017-11-28T07:08:10.046Z,1007.84
2017-11-28T07:09:11.899Z,1007.90
2017-11-28T07:10:13.709Z,1007.84
2017-11-28T07:11:15.522Z,1007.89
2017-11-28T07:12:17.359Z,1007.94
2017-11-28T07:13:19.177Z,1007.92
2017-11-28T07:14:20.990Z,1007.97
2017-11-28T07:15:35.165Z,1007.94
2017-11-28T07:16:37.039Z,1007.92
2017-11-28T07:17:38.917Z,1007.98
2017-11-28T07:18:40.833Z,1007.93
2017-11-28T07:19:42.611Z,1007.95
2017-11-28T07:20:44.426Z,1007.95
2017-11-28T07:21:46.301Z,1007.97
2017-11-28T07:22:48.175Z,1007.94
2017-11-28T07:23:50.048Z,1007.93
2017-11-28T07:25:04.198Z,1007.95
2017-11-28T07:26:06.073Z,1007.91
2017-11-28T07:27:07.952Z,1007.94
2017-11-28T07:28:09.825Z,1007.94
2017-11-28T07:29:11.641Z,1007.94
2017-11-28T07:30:13.458Z,1007.97
2017-11-28T07:31:15.333Z,1007.98
2017-11-28T07:32:17.206Z,1008.01
2017-11-28T07:33:19.077Z,1008.03
2017-11-28T07:34:33.230Z,1008.06
2017-11-28T07:35:35.110Z,1008.03
2017-11-28T07:36:36.984Z,1008.03
2017-11-28T07:37:38.856Z,1008.04
2017-11-28T07:38:40.673Z,1008.07
2017-11-28T07:39:42.487Z,1008.04
2017-11-28T07:40:44.362Z,1008.01
2017-11-28T07:41:46.237Z,1008.01
2017-11-28T07:42:48.112Z,1008.00
2017-11-28T07:44:02.261Z,1008.01
2017-11-28T07:45:04.141Z,1007.99
2017-11-28T07:46:06.019Z,1007.95
2017-11-28T07:47:07.893Z,1008.01
2017-11-28T07:48:09.712Z,1008.01
2017-11-28T07:49:11.566Z,1007.98
2017-11-28T07:50:13.425Z,1008.00
2017-11-28T07:51:15.303Z,1008.04
2017-11-28T07:52:17.176Z,1008.03
2017-11-28T07:53:31.326Z,1008.05
2017-11-28T07:54:33.203Z,1007.97
2017-11-28T07:55:35.082Z,1008.05
2017-11-28T07:56:36.958Z,1007.99
2017-11-28T07:57:38.777Z,1008.01
2017-11-28T07:58:40.596Z,1008.02
2017-11-28T07:59:42.474Z,1008.00
2017-11-28T08:00:44.348Z,1007.96
2017-11-28T08:01:46.225Z,1007.97
2017-11-28T08:03:00.406Z,1007.97
2017-11-28T08:04:02.269Z,1008.00
2017-11-28T08:05:04.153Z,1007.98
2017-11-28T08:06:06.024Z,1008.01
2017-11-28T08:07:07.841Z,1007.99
2017-11-28T08:08:09.657Z,1007.98
2017-11-28T08:09:11.493Z,1007.98
2017-11-28T08:10:13.313Z,1008.00
2017-11-28T08:11:15.167Z,1007.97
2017-11-28T08:12:29.365Z,1007.97
2017-11-28T08:13:31.244Z,1007.98
2017-11-28T08:14:33.123Z,1007.97
2017-11-28T08:15:34.997Z,1007.99
2017-11-28T08:16:36.818Z,1007.95
2017-11-28T08:17:38.634Z,1007.95
2017-11-28T08:18:40.513Z,1007.96
2017-11-28T08:19:42.384Z,1007.93
2017-11-28T08:20:44.265Z,1007.93
2017-11-28T08:21:58.411Z,1007.94
2017-11-28T08:23:00.288Z,1007.89
2017-11-28T08:24:02.167Z,1007.92
2017-11-28T08:25:04.042Z,1007.91
2017-11-28T08:26:05.858Z,1007.86
2017-11-28T08:27:07.677Z,1007.84
2017-11-28T08:28:09.562Z,1007.84
2017-11-28T08:29:11.434Z,1007.84
2017-11-28T08:30:13.307Z,1007.81
2017-11-28T08:31:27.465Z,1007.84
2017-11-28T08:32:29.343Z,1007.86
2017-11-28T08:33:31.222Z,1007.86
2017-11-28T08:34:33.097Z,1007.82
2017-11-28T08:35:34.923Z,1007.83
2017-11-28T08:36:36.736Z,1007.78
2017-11-28T08:37:38.613Z,1007.74
2017-11-28T08:38:40.488Z,1007.79
2017-11-28T08:39:42.366Z,1007.75
2017-11-28T08:40:56.515Z,1007.75
2017-11-28T08:41:58.392Z,1007.73
2017-11-28T08:43:00.270Z,1007.70
2017-11-28T08:44:02.148Z,1007.72
2017-11-28T08:45:03.966Z,1007.70
2017-11-28T08:46:05.783Z,1007.73
2017-11-28T08:47:07.660Z,1007.73
2017-11-28T08:48:09.544Z,1007.73
2017-11-28T08:49:11.421Z,1007.73
2017-11-28T08:50:25.571Z,1007.72
2017-11-28T08:51:27.448Z,1007.73
2017-11-28T08:52:29.334Z,1007.71
2017-11-28T08:53:31.208Z,1007.74
2017-11-28T08:54:33.025Z,1007.74
2017-11-28T08:55:34.843Z,1007.76
2017-11-28T08:56:36.720Z,1007.75
2017-11-28T08:57:38.595Z,1007.78
2017-11-28T08:58:40.477Z,1007.73
2017-11-28T08:59:54.629Z,1007.72
2017-11-28T09:00:56.500Z,1007.76
2017-11-28T09:01:58.386Z,1007.72
2017-11-28T09:03:00.259Z,1007.80
2017-11-28T09:04:02.097Z,1007.78
2017-11-28T09:05:03.908Z,1007.82
2017-11-28T09:06:05.784Z,1007.80
2017-11-28T09:07:07.660Z,1007.79
2017-11-28T09:08:09.538Z,1007.74
2017-11-28T09:09:23.691Z,1007.73
2017-11-28T09:10:25.569Z,1007.67
2017-11-28T09:11:27.450Z,1007.70
2017-11-28T09:12:29.326Z,1007.75
2017-11-28T09:13:31.146Z,1007.72
2017-11-28T09:14:32.964Z,1007.72
2017-11-28T09:15:34.841Z,1007.79
2017-11-28T09:16:36.719Z,1007.78
2017-11-28T09:17:38.596Z,1007.78
2017-11-28T09:18:52.730Z,1007.76
2017-11-28T09:19:54.546Z,1007.77
2017-11-28T09:20:56.370Z,1007.75
2017-11-28T09:21:58.211Z,1007.71
2017-11-28T09:23:00.092Z,1007.70
2017-11-28T09:24:01.976Z,1007.69
2017-11-28T09:25:03.802Z,1007.71
2017-11-28T09:26:05.618Z,1007.70
2017-11-28T09:27:07.434Z,1007.68
2017-11-28T09:28:21.849Z,1007.72
2017-11-28T09:29:23.840Z,1007.63
2017-11-28T09:30:25.718Z,1007.66
2017-11-28T09:31:27.594Z,1007.63
2017-11-28T09:32:29.415Z,1007.62
2017-11-28T09:33:31.235Z,1007.61
2017-11-28T09:34:33.233Z,1007.67
2017-11-28T09:35:35.248Z,1007.64
2017-11-28T09:36:37.126Z,1007.63
2017-11-28T09:37:51.261Z,1007.67
2017-11-28T09:38:53.245Z,1007.64
2017-11-28T09:39:55.249Z,1007.65
2017-11-28T09:40:57.305Z,1007.65
2017-11-28T09:41:59.307Z,1007.61
2017-11-28T09:43:01.271Z,1007.54
2017-11-28T09:44:03.308Z,1007.59
2017-11-28T09:45:05.336Z,1007.60
2017-11-28T09:46:07.259Z,1007.58
2017-11-28T09:47:21.602Z,1007.55
2017-11-28T09:48:23.481Z,1007.54
2017-11-28T09:49:25.358Z,1007.51
2017-11-28T09:50:27.238Z,1007.48
2017-11-28T09:51:29.054Z,1007.49
2017-11-28T09:52:30.875Z,1007.42
2017-11-28T09:53:32.751Z,1007.46
2017-11-28T09:54:34.630Z,1007.43
2017-11-28T09:55:36.510Z,1007.45
2017-11-28T09:56:50.673Z,1007.50
2017-11-28T09:57:52.549Z,1007.47
2017-11-28T09:58:54.433Z,1007.53
2017-11-28T09:59:56.298Z,1007.54
2017-11-28T10:00:58.120Z,1007.50
2017-11-28T10:01:59.940Z,1007.43
2017-11-28T10:03:01.816Z,1007.46
2017-11-28T10:04:03.694Z,1007.43
2017-11-28T10:05:05.573Z,1007.42
2017-11-28T10:06:19.708Z,1007.43
2017-11-28T10:07:21.546Z,1007.45
2017-11-28T10:08:23.442Z,1007.35
2017-11-28T10:09:25.321Z,1007.39
2017-11-28T10:10:27.178Z,1007.45
2017-11-28T10:11:28.998Z,1007.40
2017-11-28T10:12:30.816Z,1007.31
2017-11-28T10:13:32.698Z,1007.28
2017-11-28T10:14:34.572Z,1007.28
2017-11-28T10:15:48.810Z,1007.27
2017-11-28T10:16:50.688Z,1007.34
2017-11-28T10:17:52.566Z,1007.33
2017-11-28T10:18:54.446Z,1007.27
2017-11-28T10:19:56.269Z,1007.27
2017-11-28T10:20:58.087Z,1007.20
2017-11-28T10:21:59.965Z,1007.16
2017-11-28T10:23:01.843Z,1007.10
2017-11-28T10:24:03.720Z,1007.09
2017-11-28T10:25:17.871Z,1007.08
2017-11-28T10:26:19.751Z,1007.03
2017-11-28T10:27:21.633Z,1006.94
2017-11-28T10:28:23.507Z,1006.99
2017-11-28T10:29:25.328Z,1007.04
2017-11-28T10:30:27.155Z,1007.06
2017-11-28T10:31:29.029Z,1007.10
2017-11-28T10:32:30.903Z,1007.09
2017-11-28T10:33:32.782Z,1007.14
2017-11-28T10:34:46.935Z,1007.16
2017-11-28T10:35:48.811Z,1007.12
2017-11-28T10:36:50.696Z,1007.09
2017-11-28T10:37:52.573Z,1007.13
2017-11-28T10:38:54.397Z,1007.13
2017-11-28T10:39:56.218Z,1007.15
2017-11-28T10:40:58.098Z,1007.15
2017-11-28T10:41:59.973Z,1007.12
2017-11-28T10:43:01.850Z,1007.13
2017-11-28T10:44:16.002Z,1007.11
2017-11-28T10:45:17.885Z,1007.15
2017-11-28T10:46:19.765Z,1007.08
2017-11-28T10:47:21.640Z,1007.05
2017-11-28T10:48:23.464Z,1007.04
2017-11-28T10:49:25.286Z,1007.03
2017-11-28T10:50:27.165Z,1007.02
2017-11-28T10:51:29.040Z,1006.99
2017-11-28T10:52:30.918Z,1007.04
2017-11-28T10:53:45.069Z,1007.03
2017-11-28T10:54:46.948Z,1006.95
2017-11-28T10:55:48.828Z,1006.99
2017-11-28T10:56:50.705Z,1006.98
2017-11-28T10:57:52.535Z,1006.95
2017-11-28T10:58:54.355Z,1006.98
2017-11-28T10:59:56.231Z,1006.93
2017-11-28T11:00:58.109Z,1006.85
2017-11-28T11:01:59.991Z,1006.86
2017-11-28T11:03:14.143Z,1006.87
2017-11-28T11:04:16.022Z,1006.82
2017-11-28T11:05:17.906Z,1006.82
2017-11-28T11:06:19.785Z,1006.88
2017-11-28T11:07:21.611Z,1006.85
2017-11-28T11:08:23.424Z,1006.87
2017-11-28T11:09:25.300Z,1006.84
2017-11-28T11:10:27.179Z,1006.88
2017-11-28T11:11:29.058Z,1006.87
2017-11-28T11:12:43.210Z,1006.90
2017-11-28T11:13:45.088Z,1006.83
2017-11-28T11:14:46.970Z,1006.91
2017-11-28T11:15:48.849Z,1006.86
2017-11-28T11:16:50.682Z,1006.91
2017-11-28T11:17:52.502Z,1006.84
2017-11-28T11:18:54.403Z,1006.88
2017-11-28T11:19:56.265Z,1006.91
2017-11-28T11:20:58.144Z,1006.85
2017-11-28T11:22:12.296Z,1006.91
2017-11-28T11:23:14.175Z,1006.84
2017-11-28T11:24:16.056Z,1006.91
2017-11-28T11:25:17.935Z,1006.88
2017-11-28T11:26:19.764Z,1006.88
2017-11-28T11:27:21.587Z,1006.80
2017-11-28T11:28:23.466Z,1006.83
2017-11-28T11:29:25.348Z,1006.78
2017-11-28T11:30:27.223Z,1006.80
2017-11-28T11:31:41.380Z,1006.80
2017-11-28T11:32:43.256Z,1006.81
2017-11-28T11:33:45.143Z,1006.80
2017-11-28T11:34:47.013Z,1006.82
2017-11-28T11:35:48.909Z,1006.84
2017-11-28T11:36:50.727Z,1006.82
2017-11-28T11:37:52.609Z,1006.77
2017-11-28T11:38:54.948Z,1006.85
2017-11-28T11:39:56.922Z,1006.78
2017-11-28T11:41:11.090Z,1006.77
2017-11-28T11:42:12.996Z,1006.75
2017-11-28T11:43:14.879Z,1006.76
2017-11-28T11:44:16.759Z,1006.74
2017-11-28T11:45:18.664Z,1006.73
2017-11-28T11:46:20.540Z,1006.78
2017-11-28T11:47:22.392Z,1006.81
2017-11-28T11:48:24.265Z,1006.81
2017-11-28T11:49:26.145Z,1006.85
2017-11-28T11:50:40.367Z,1006.82
2017-11-28T11:51:42.407Z,1006.77
2017-11-28T11:52:44.261Z,1006.79
2017-11-28T11:53:46.139Z,1006.77
2017-11-28T11:54:47.960Z,1006.72
2017-11-28T11:55:49.777Z,1006.75
2017-11-28T11:56:51.654Z,1006.79
2017-11-28T11:57:53.534Z,1006.73
2017-11-28T11:58:55.786Z,1006.76
2017-11-28T12:00:10.352Z,1006.78
2017-11-28T12:01:12.195Z,1006.73
2017-11-28T12:02:14.079Z,1006.74
2017-11-28T12:03:15.959Z,1006.67
2017-11-28T12:04:17.862Z,1006.73
2017-11-28T12:05:19.759Z,1006.72
2017-11-28T12:06:21.652Z,1006.64
2017-11-28T12:07:23.525Z,1006.62
2017-11-28T12:08:25.408Z,1006.65
2017-11-28T12:09:39.558Z,1006.69
2017-11-28T12:10:41.437Z,1006.66
2017-11-28T12:11:43.315Z,1006.66
2017-11-28T12:12:45.192Z,1006.64
2017-11-28T12:13:47.012Z,1006.61
2017-11-28T12:14:48.834Z,1006.63
2017-11-28T12:15:50.710Z,1006.59
2017-11-28T12:16:52.588Z,1006.62
2017-11-28T12:17:54.748Z,1006.62
2017-11-28T12:19:08.923Z,1006.67
2017-11-28T12:20:10.828Z,1006.70
2017-11-28T12:21:12.709Z,1006.68
2017-11-28T12:22:14.608Z,1006.75
2017-11-28T12:23:16.422Z,1006.73
2017-11-28T12:24:18.246Z,1006.68
2017-11-28T12:25:20.121Z,1006.71
2017-11-28T12:26:22.137Z,1006.69
2017-11-28T12:27:24.126Z,1006.70
2017-11-28T12:28:38.279Z,1006.67
2017-11-28T12:29:40.156Z,1006.66
2017-11-28T12:30:42.182Z,1006.69
2017-11-28T12:31:44.133Z,1006.65
2017-11-28T12:32:45.942Z,1006.61
2017-11-28T12:33:47.759Z,1006.61
2017-11-28T12:34:49.635Z,1006.65
2017-11-28T12:35:51.515Z,1006.62
2017-11-28T12:36:53.390Z,1006.64
2017-11-28T12:38:07.542Z,1006.65
2017-11-28T12:39:09.417Z,1006.68
2017-11-28T12:40:11.302Z,1006.69
2017-11-28T12:41:13.292Z,1006.72
2017-11-28T12:42:15.109Z,1006.70
2017-11-28T12:43:16.929Z,1006.68
2017-11-28T12:44:18.807Z,1006.67